Terminal Aerodrome Forecast
Issued by NWS

Home | Current Version | Previous Version | Graphics & Text | Print | Product List | Glossary On
Versions: 1 2 3 4 5 6 7 8 9 10 11 12 13 14 15 16 17 18 19 20 21 22
000
FTUS43 KPAH 292300
TAFCGI
TAF
KCGI 292324Z 3000/3024 17006KT P6SM BKN050
     FM300300 18004KT P6SM VCTS BKN040CB
     FM300900 16004KT 4SM SHRA BR BKN050
     FM301500 20007KT 3SM SHRA BR OVC035=

USA.gov is the U.S. government's official web portal to all federal, state and local government web resources and services.